createdAt,value
2022-10-19T00:00:29.500Z,103071.66
2022-10-19T00:02:55.817Z,103076.06
2022-10-19T00:05:22.203Z,103072.69
2022-10-19T00:07:48.500Z,103072.69
2022-10-19T00:10:14.800Z,103078.75
2022-10-19T00:12:41.171Z,103083.13
2022-10-19T00:15:08.042Z,103075.28
2022-10-19T00:17:34.836Z,103074.47
2022-10-19T00:20:01.456Z,103079.72
2022-10-19T00:22:27.786Z,103063.97
2022-10-19T00:24:56.623Z,103062.28
2022-10-19T00:27:22.932Z,103062.34
2022-10-19T00:29:49.317Z,103065.88
2022-10-19T00:32:15.654Z,103060.66
2022-10-19T00:34:41.999Z,103061.56
2022-10-19T00:37:08.328Z,103058.94
2022-10-19T00:39:34.648Z,103065.88
2022-10-19T00:42:00.979Z,103061.63
2022-10-19T00:44:30.247Z,103066.84
2022-10-19T00:47:03.418Z,103066.00
2022-10-19T00:49:33.711Z,103069.47
2022-10-19T00:52:07.081Z,103060.78
2022-10-19T00:54:36.153Z,103066.00
2022-10-19T00:57:05.053Z,103060.00
2022-10-19T00:59:32.615Z,103060.94
2022-10-19T01:02:00.720Z,103066.16
2022-10-19T01:04:29.235Z,103061.75
2022-10-19T01:06:57.271Z,103060.94
2022-10-19T01:09:23.613Z,103059.22
2022-10-19T01:12:14.907Z,103056.59
2022-10-19T01:15:03.117Z,103054.84
2022-10-19T01:17:50.921Z,103046.16
2022-10-19T01:20:35.803Z,103047.06
2022-10-19T01:23:45.555Z,103045.38
2022-10-19T01:26:40.987Z,103040.13
2022-10-19T01:29:44.978Z,103032.38
2022-10-19T01:32:25.140Z,103037.66
2022-10-19T01:35:01.693Z,103041.97
2022-10-19T01:37:31.162Z,103026.38
2022-10-19T01:40:14.862Z,103029.91
2022-10-19T01:42:58.891Z,103027.28
2022-10-19T01:45:41.502Z,103023.84
2022-10-19T01:48:17.395Z,103021.22
2022-10-19T01:50:48.133Z,103028.22
2022-10-19T01:53:17.796Z,103025.66
2022-10-19T01:55:48.743Z,103023.91
2022-10-19T01:58:22.544Z,103025.66
2022-10-19T02:00:51.350Z,103024.88
2022-10-19T02:03:19.361Z,103024.88
2022-10-19T02:05:48.139Z,103036.16
2022-10-19T02:08:23.911Z,103028.38
2022-10-19T02:10:51.152Z,103027.47
2022-10-19T02:13:20.512Z,103032.78
2022-10-19T02:15:50.901Z,103027.63
2022-10-19T02:18:23.791Z,103031.94
2022-10-19T02:20:50.295Z,103025.00
2022-10-19T02:23:20.686Z,103018.94
2022-10-19T02:25:47.121Z,103022.47
2022-10-19T02:28:13.586Z,103019.00
2022-10-19T02:30:40.017Z,103033.75
2022-10-19T02:33:07.816Z,103024.25
2022-10-19T02:35:34.643Z,103023.31
2022-10-19T02:38:02.827Z,103018.22
2022-10-19T02:40:33.492Z,103022.53
2022-10-19T02:43:05.486Z,103016.44
2022-10-19T02:45:37.454Z,103007.78
2022-10-19T02:48:08.626Z,103011.28
2022-10-19T02:50:35.397Z,103006.13
2022-10-19T02:53:01.701Z,103007.00
2022-10-19T02:55:29.910Z,103007.00
2022-10-19T02:57:57.247Z,103004.41
2022-10-19T03:00:23.605Z,103004.47
2022-10-19T03:02:49.945Z,103004.47
2022-10-19T03:05:16.271Z,103006.19
2022-10-19T03:07:43.260Z,102997.53
2022-10-19T03:10:09.885Z,102996.69
2022-10-19T03:12:36.240Z,102998.44
2022-10-19T03:15:02.606Z,102995.00
2022-10-19T03:17:28.924Z,102998.44
2022-10-19T03:19:55.251Z,102990.69
2022-10-19T03:22:21.611Z,102996.75
2022-10-19T03:24:47.909Z,102989.84
2022-10-19T03:27:14.231Z,102977.69
2022-10-19T03:29:40.547Z,102978.53
2022-10-19T03:32:06.943Z,102977.69
2022-10-19T03:34:33.394Z,102987.28
2022-10-19T03:36:59.711Z,102989.91
2022-10-19T03:39:26.388Z,102990.81
2022-10-19T03:41:52.695Z,102986.50
2022-10-19T03:44:19.001Z,102984.81
2022-10-19T03:46:45.495Z,102985.72
2022-10-19T03:49:12.163Z,102986.63
2022-10-19T03:51:38.531Z,102983.13
2022-10-19T03:54:07.391Z,102980.50
2022-10-19T03:56:35.286Z,102978.78
2022-10-19T03:59:02.821Z,102983.19
2022-10-19T04:01:32.848Z,102978.03
2022-10-19T04:04:02.343Z,102985.84
2022-10-19T04:06:31.567Z,102984.06
2022-10-19T04:08:58.950Z,102979.72
2022-10-19T04:11:27.634Z,102977.16
2022-10-19T04:13:55.369Z,102978.94
2022-10-19T04:16:23.428Z,102982.44
2022-10-19T04:18:50.004Z,102987.66
2022-10-19T04:21:28.150Z,102986.81
2022-10-19T04:23:58.925Z,102985.97
2022-10-19T04:26:25.232Z,102980.75
2022-10-19T04:28:51.690Z,102975.63
2022-10-19T04:31:18.025Z,102985.13
2022-10-19T04:36:12.200Z,102982.56
2022-10-19T04:38:39.279Z,102978.22
2022-10-19T04:41:08.375Z,102980.00
2022-10-19T04:43:35.255Z,102975.66
2022-10-19T04:46:06.408Z,102975.72
2022-10-19T04:48:34.248Z,102975.72
2022-10-19T04:51:00.805Z,102985.28
2022-10-19T04:53:27.350Z,102982.75
2022-10-19T04:55:53.816Z,102981.84
2022-10-19T04:58:20.599Z,102985.34
2022-10-19T05:00:47.058Z,102990.56
2022-10-19T05:03:13.680Z,102983.63
2022-10-19T05:05:39.990Z,102980.19
2022-10-19T05:08:06.877Z,102986.31
2022-10-19T05:10:33.272Z,102975.94
2022-10-19T05:13:01.991Z,102982.03
2022-10-19T05:15:29.280Z,102975.03
2022-10-19T05:17:55.992Z,102977.66
2022-10-19T05:20:22.819Z,102970.78
2022-10-19T05:22:49.367Z,102975.09
2022-10-19T05:25:15.986Z,102977.72
2022-10-19T05:27:42.295Z,102976.88
2022-10-19T05:30:09.175Z,102973.41
2022-10-19T05:32:35.659Z,102962.13
2022-10-19T05:35:01.989Z,102962.13
2022-10-19T05:37:28.289Z,102954.38
2022-10-19T05:39:57.611Z,102957.81
2022-10-19T05:42:23.980Z,102969.13
2022-10-19T05:44:50.283Z,102958.78
2022-10-19T05:47:16.606Z,102966.59
2022-10-19T05:49:42.929Z,102969.22
2022-10-19T05:52:09.266Z,102967.47
2022-10-19T05:54:37.145Z,102959.72
2022-10-19T05:57:03.699Z,102960.56
2022-10-19T05:59:30.095Z,102957.09
2022-10-19T06:01:56.445Z,102964.00
2022-10-19T06:04:22.856Z,102959.66
2022-10-19T06:06:49.191Z,102962.19
2022-10-19T06:09:15.539Z,102958.69
2022-10-19T06:11:42.895Z,102963.84
2022-10-19T06:14:13.108Z,102949.03
2022-10-19T06:16:39.626Z,102954.22
2022-10-19T06:19:06.233Z,102948.13
2022-10-19T06:21:33.599Z,102955.00
2022-10-19T06:24:02.795Z,102961.94
2022-10-19T06:26:31.240Z,102967.16
2022-10-19T06:29:00.433Z,102968.84
2022-10-19T06:31:32.057Z,102967.91
2022-10-19T06:33:58.593Z,102975.75
2022-10-19T06:36:28.635Z,102973.03
2022-10-19T06:38:56.580Z,102971.25
2022-10-19T06:41:23.511Z,102976.47
2022-10-19T06:43:54.215Z,102974.75
2022-10-19T06:46:23.262Z,102978.16
2022-10-19T06:48:54.492Z,102972.00
2022-10-19T06:51:21.324Z,102970.25
2022-10-19T06:53:48.975Z,102971.91
2022-10-19T06:56:17.044Z,102969.22
2022-10-19T06:58:43.439Z,102954.41
2022-10-19T07:01:11.661Z,102955.19
2022-10-19T07:03:38.186Z,102956.88
2022-10-19T07:06:07.377Z,102949.88
2022-10-19T07:08:35.828Z,102952.44
2022-10-19T07:11:05.321Z,102961.97
2022-10-19T07:13:31.793Z,102954.13
2022-10-19T07:16:05.446Z,102948.91
2022-10-19T07:18:32.185Z,102960.16
2022-10-19T07:21:01.427Z,102949.72
2022-10-19T07:23:29.159Z,102951.38
2022-10-19T07:26:02.063Z,102962.69
2022-10-19T07:28:29.742Z,102960.94
2022-10-19T07:30:56.297Z,102959.09
2022-10-19T07:33:22.806Z,102954.66
2022-10-19T07:35:49.347Z,102952.88
2022-10-19T07:38:15.809Z,102958.97
2022-10-19T07:40:44.920Z,102959.81
2022-10-19T07:43:13.662Z,102964.19
2022-10-19T07:45:39.998Z,102960.66
2022-10-19T07:48:06.409Z,102964.97
2022-10-19T07:50:32.748Z,102964.97
2022-10-19T07:52:59.068Z,102962.28
2022-10-19T07:55:25.420Z,102964.00
2022-10-19T07:57:51.756Z,102962.16
2022-10-19T08:00:18.261Z,102963.94
2022-10-19T08:02:59.724Z,102958.72
2022-10-19T08:05:33.287Z,102968.22
2022-10-19T08:07:59.747Z,102965.56
2022-10-19T08:10:26.203Z,102972.38
2022-10-19T08:12:52.542Z,102964.56
2022-10-19T08:15:19.012Z,102973.19
2022-10-19T08:17:45.506Z,102960.13
2022-10-19T08:20:11.904Z,102956.66
2022-10-19T08:22:38.223Z,102963.59
2022-10-19T08:25:04.923Z,102966.19
2022-10-19T08:27:31.286Z,102964.41
2022-10-19T08:29:57.623Z,102964.41
2022-10-19T08:32:23.940Z,102965.22
2022-10-19T08:34:50.244Z,102959.09
2022-10-19T08:37:32.578Z,102957.31
2022-10-19T08:40:03.611Z,102955.53
2022-10-19T08:42:54.349Z,102952.88
2022-10-19T08:45:33.061Z,102949.28
2022-10-19T08:48:07.062Z,102944.06
2022-10-19T08:50:40.561Z,102933.53
2022-10-19T08:53:16.673Z,102936.09
2022-10-19T08:55:57.781Z,102931.72
2022-10-19T08:58:36.326Z,102935.19
2022-10-19T09:01:37.546Z,102929.88
2022-10-19T09:04:14.900Z,102926.44
2022-10-19T09:06:56.893Z,102928.97
2022-10-19T09:09:23.923Z,102923.69
2022-10-19T09:11:55.414Z,102918.38
2022-10-19T09:14:31.631Z,102907.94
2022-10-19T09:17:02.634Z,102900.94
2022-10-19T09:19:31.824Z,102908.72
2022-10-19T09:22:02.819Z,102906.88
2022-10-19T09:24:40.716Z,102913.84
2022-10-19T09:27:16.119Z,102907.72
2022-10-19T09:29:48.030Z,102908.56
2022-10-19T09:32:20.841Z,102918.03
2022-10-19T09:34:53.205Z,102906.75
2022-10-19T09:37:25.947Z,102911.91
2022-10-19T09:39:54.992Z,102907.50
2022-10-19T09:42:30.349Z,102904.00
2022-10-19T09:44:59.882Z,102901.31
2022-10-19T09:47:35.810Z,102886.47
2022-10-19T09:50:18.073Z,102887.34
2022-10-19T09:52:46.640Z,102885.56
2022-10-19T09:55:18.656Z,102887.34
2022-10-19T09:57:47.040Z,102873.47
2022-10-19T10:00:22.236Z,102888.09
2022-10-19T10:02:53.453Z,102873.19
2022-10-19T10:05:29.558Z,102888.72
2022-10-19T10:07:56.042Z,102879.91
2022-10-19T10:10:30.597Z,102877.75
2022-10-19T10:13:00.798Z,102870.59
2022-10-19T10:15:33.980Z,102873.91
2022-10-19T10:18:00.717Z,102872.13
2022-10-19T10:20:28.347Z,102870.47
2022-10-19T10:23:06.172Z,102874.69
2022-10-19T10:25:35.025Z,102868.69
2022-10-19T10:28:18.918Z,102874.00
2022-10-19T10:30:47.717Z,102879.28
2022-10-19T10:33:40.702Z,102871.53
2022-10-19T10:36:11.754Z,102862.19
2022-10-19T10:38:47.188Z,102862.31
2022-10-19T10:41:20.183Z,102864.00
2022-10-19T10:44:00.779Z,102859.63
2022-10-19T10:46:37.018Z,102856.97
2022-10-19T10:49:07.030Z,102852.56
2022-10-19T10:51:43.124Z,102852.56
2022-10-19T10:54:36.942Z,102849.13
2022-10-19T10:57:15.653Z,102842.97
2022-10-19T11:00:01.101Z,102833.38
2022-10-19T11:02:42.314Z,102833.31
2022-10-19T11:05:11.844Z,102824.56
2022-10-19T11:07:44.916Z,102823.63
2022-10-19T11:10:22.344Z,102818.31
2022-10-19T11:13:12.678Z,102814.88
2022-10-19T11:16:04.919Z,102803.50
2022-10-19T11:19:07.278Z,102800.75
2022-10-19T11:21:40.112Z,102801.59
2022-10-19T11:24:22.575Z,102797.22
2022-10-19T11:27:25.952Z,102796.19
2022-10-19T11:30:13.286Z,102779.63
2022-10-19T11:33:04.706Z,102776.00
2022-10-19T11:35:59.530Z,102770.69
2022-10-19T11:38:54.147Z,102764.56
2022-10-19T11:41:33.691Z,102760.94
2022-10-19T11:44:32.584Z,102762.63
2022-10-19T11:47:20.388Z,102745.94
2022-10-19T11:50:04.060Z,102743.19
2022-10-19T11:52:58.476Z,102739.56
2022-10-19T11:55:41.513Z,102731.72
2022-10-19T11:58:13.843Z,102729.88
2022-10-19T12:00:58.656Z,102717.72
2022-10-19T12:03:31.080Z,102721.94
2022-10-19T12:06:18.261Z,102713.94
2022-10-19T12:09:02.183Z,102706.03
2022-10-19T12:12:00.257Z,102708.47
2022-10-19T12:14:31.777Z,102704.78
2022-10-19T12:17:05.813Z,102698.63
2022-10-19T12:19:40.532Z,102688.84
2022-10-19T12:22:15.218Z,102693.16
2022-10-19T12:24:41.539Z,102686.09
2022-10-19T12:27:13.339Z,102681.63
2022-10-19T12:29:43.413Z,102685.84
2022-10-19T12:32:14.934Z,102673.63
2022-10-19T12:34:56.659Z,102657.91
2022-10-19T12:37:44.123Z,102651.78
2022-10-19T12:40:43.147Z,102650.81
2022-10-19T12:43:35.686Z,102651.59
2022-10-19T12:46:08.851Z,102648.91
2022-10-19T12:48:37.078Z,102644.44
2022-10-19T12:51:06.678Z,102633.97
2022-10-19T12:53:42.482Z,102626.91
2022-10-19T12:56:19.446Z,102627.72
2022-10-19T12:58:47.836Z,102617.09
2022-10-19T13:01:35.868Z,102615.34
2022-10-19T13:04:35.855Z,102600.47
2022-10-19T13:07:10.766Z,102586.50
2022-10-19T13:09:44.266Z,102597.03
2022-10-19T13:12:16.272Z,102584.19
2022-10-19T13:14:51.323Z,102585.97
2022-10-19T13:17:44.042Z,102580.00
2022-10-19T13:20:13.083Z,102581.81
2022-10-19T13:22:48.776Z,102574.16
2022-10-19T13:25:21.309Z,102569.84
2022-10-19T13:27:49.487Z,102569.00
2022-10-19T13:30:46.459Z,102571.63
2022-10-19T13:33:25.316Z,102556.94
2022-10-19T13:36:02.096Z,102552.75
2022-10-19T13:38:52.965Z,102554.50
2022-10-19T13:41:22.454Z,102557.28
2022-10-19T13:44:01.021Z,102552.97
2022-10-19T13:46:30.284Z,102553.06
2022-10-19T13:49:05.562Z,102548.78
2022-10-19T13:51:36.890Z,102544.47
2022-10-19T13:54:49.006Z,102540.16
2022-10-19T13:57:21.613Z,102546.31
2022-10-19T14:00:12.851Z,102540.22
2022-10-19T14:03:01.307Z,102546.31
2022-10-19T14:05:55.568Z,102553.31
2022-10-19T14:08:27.955Z,102537.78
2022-10-19T14:11:11.644Z,102543.03
2022-10-19T14:13:38.075Z,102538.53
2022-10-19T14:16:04.638Z,102550.88
2022-10-19T14:18:33.892Z,102553.47
2022-10-19T14:21:02.961Z,102553.56
2022-10-19T14:23:32.499Z,102550.13
2022-10-19T14:26:03.262Z,102552.81
2022-10-19T14:28:30.865Z,102548.41
2022-10-19T14:30:59.878Z,102554.56
2022-10-19T14:33:28.343Z,102547.66
2022-10-19T14:35:55.380Z,102543.19
2022-10-19T14:38:31.730Z,102537.63
2022-10-19T14:40:58.312Z,102538.31
2022-10-19T14:43:27.712Z,102541.75
2022-10-19T14:46:06.219Z,102535.88
2022-10-19T14:48:34.146Z,102543.53
2022-10-19T14:51:00.741Z,102531.31
2022-10-19T14:53:40.122Z,102534.22
2022-10-19T14:56:13.863Z,102520.31
2022-10-19T14:58:50.303Z,102519.66
2022-10-19T15:01:18.317Z,102519.31
2022-10-19T15:03:46.284Z,102511.03
2022-10-19T15:06:27.630Z,102505.50
2022-10-19T15:09:07.377Z,102500.66
2022-10-19T15:11:40.911Z,102499.16
2022-10-19T15:14:15.247Z,102488.56
2022-10-19T15:16:49.791Z,102487.28
2022-10-19T15:19:39.101Z,102479.28
2022-10-19T15:22:31.525Z,102480.97
2022-10-19T15:25:08.583Z,102476.75
2022-10-19T15:27:37.039Z,102472.44
2022-10-19T15:30:22.564Z,102462.91
2022-10-19T15:32:54.416Z,102465.50
2022-10-19T15:35:32.892Z,102452.63
2022-10-19T15:38:05.023Z,102450.00
2022-10-19T15:40:37.720Z,102447.47
2022-10-19T15:43:34.880Z,102445.78
2022-10-19T15:46:25.697Z,102448.47
2022-10-19T15:48:57.856Z,102451.09
2022-10-19T15:51:26.892Z,102458.00
2022-10-19T15:53:56.167Z,102448.38
2022-10-19T15:56:25.027Z,102447.56
2022-10-19T15:58:53.168Z,102439.63
2022-10-19T16:01:23.357Z,102437.09
2022-10-19T16:03:50.293Z,102430.19
2022-10-19T16:06:18.000Z,102423.19
2022-10-19T16:08:46.221Z,102428.44
2022-10-19T16:11:17.552Z,102422.34
2022-10-19T16:13:44.121Z,102411.06
2022-10-19T16:16:18.206Z,102418.06
2022-10-19T16:18:44.495Z,102407.59
2022-10-19T16:21:10.812Z,102406.00
2022-10-19T16:23:41.866Z,102405.16
2022-10-19T16:26:08.731Z,102406.09
2022-10-19T16:28:35.859Z,102398.16
2022-10-19T16:31:02.168Z,102399.94
2022-10-19T16:33:28.487Z,102401.69
2022-10-19T16:35:54.770Z,102403.38
2022-10-19T16:38:21.096Z,102406.91
2022-10-19T16:40:47.432Z,102414.75
2022-10-19T16:43:13.724Z,102403.47
2022-10-19T16:45:43.584Z,102412.16
2022-10-19T16:48:12.792Z,102406.09
2022-10-19T16:50:39.363Z,102400.03
2022-10-19T16:53:12.118Z,102392.25
2022-10-19T16:55:39.840Z,102395.72
2022-10-19T16:58:06.992Z,102382.66
2022-10-19T17:00:35.221Z,102374.91
2022-10-19T17:03:01.564Z,102376.56
2022-10-19T17:05:27.913Z,102369.66
2022-10-19T17:07:54.254Z,102372.38
2022-10-19T17:10:20.660Z,102370.59
2022-10-19T17:12:47.016Z,102368.81
2022-10-19T17:18:00.275Z,102365.44
2022-10-19T17:20:26.595Z,102367.16
2022-10-19T17:22:52.918Z,102348.94
2022-10-19T17:25:19.357Z,102353.31
2022-10-19T17:27:50.144Z,102359.41
2022-10-19T17:30:16.658Z,102359.41
2022-10-19T17:32:43.066Z,102358.34
2022-10-19T17:35:09.538Z,102345.28
2022-10-19T17:37:36.105Z,102357.34
2022-10-19T17:40:02.693Z,102354.72
2022-10-19T17:42:29.015Z,102354.66
2022-10-19T17:44:55.375Z,102348.59
2022-10-19T17:47:21.718Z,102351.09
2022-10-19T17:49:48.031Z,102359.88
2022-10-19T17:52:14.361Z,102347.66
2022-10-19T17:54:48.909Z,102349.31
2022-10-19T17:57:26.953Z,102344.97
2022-10-19T17:59:54.480Z,102341.41
2022-10-19T18:02:20.845Z,102334.50
2022-10-19T18:04:47.175Z,102344.88
2022-10-19T18:07:13.530Z,102345.72
2022-10-19T18:09:39.868Z,102349.16
2022-10-19T18:12:07.599Z,102357.84
2022-10-19T18:14:34.114Z,102357.00
2022-10-19T18:17:00.443Z,102366.44
2022-10-19T18:19:26.761Z,102359.50
2022-10-19T18:21:53.336Z,102362.06
2022-10-19T18:24:21.241Z,102371.66
2022-10-19T18:26:49.366Z,102362.06
2022-10-19T18:29:18.955Z,102361.22
2022-10-19T18:31:51.125Z,102356.84
2022-10-19T18:34:20.321Z,102351.63
2022-10-19T18:36:47.742Z,102345.44
2022-10-19T18:39:14.764Z,102340.22
2022-10-19T18:41:41.800Z,102350.66
2022-10-19T18:44:11.397Z,102337.50
2022-10-19T18:46:37.788Z,102327.91
2022-10-19T18:49:06.763Z,102322.69
2022-10-19T18:51:33.095Z,102314.84
2022-10-19T18:53:59.582Z,102309.63
2022-10-19T18:56:26.924Z,102320.91
2022-10-19T18:58:53.252Z,102322.69
2022-10-19T19:01:27.067Z,102307.00
2022-10-19T19:03:56.305Z,102309.53
2022-10-19T19:06:33.028Z,102314.75
2022-10-19T19:09:00.656Z,102315.59
2022-10-19T19:11:30.663Z,102307.75
2022-10-19T19:14:02.283Z,102303.34
2022-10-19T19:16:32.125Z,102292.06
2022-10-19T19:18:58.465Z,102286.81
2022-10-19T19:21:26.702Z,102286.81
2022-10-19T19:23:54.566Z,102282.53
2022-10-19T19:26:26.281Z,102287.66
2022-10-19T19:28:52.879Z,102275.53
2022-10-19T19:31:19.889Z,102264.22
2022-10-19T19:33:47.799Z,102256.38
2022-10-19T19:36:16.755Z,102245.09
2022-10-19T19:38:43.627Z,102238.09
2022-10-19T19:41:12.831Z,102235.47
2022-10-19T19:43:39.796Z,102223.25
2022-10-19T19:46:14.960Z,102223.25
2022-10-19T19:48:43.570Z,102220.66
2022-10-19T19:51:12.797Z,102225.88
2022-10-19T19:53:39.503Z,102216.25
2022-10-19T19:56:07.564Z,102201.28
2022-10-19T19:58:34.483Z,102198.69
2022-10-19T20:01:11.885Z,102195.16
2022-10-19T20:03:38.628Z,102192.53
2022-10-19T20:06:05.989Z,102193.41
2022-10-19T20:08:32.798Z,102198.53
2022-10-19T20:11:07.944Z,102195.91
2022-10-19T20:13:35.076Z,102188.16
2022-10-19T20:16:08.514Z,102182.06
2022-10-19T20:18:34.844Z,102183.84
2022-10-19T20:21:02.132Z,102177.72
2022-10-19T20:23:29.499Z,102169.88
2022-10-19T20:25:56.337Z,102169.94
2022-10-19T20:28:24.063Z,102176.13
2022-10-19T20:31:07.680Z,102177.88
2022-10-19T20:33:36.715Z,102170.13
2022-10-19T20:36:11.879Z,102164.88
2022-10-19T20:38:38.795Z,102158.00
2022-10-19T20:41:08.199Z,102162.28
2022-10-19T20:43:36.403Z,102149.22
2022-10-19T20:46:13.684Z,102144.06
2022-10-19T20:48:40.587Z,102137.09
2022-10-19T20:51:39.223Z,102143.16
2022-10-19T20:54:09.686Z,102131.88
2022-10-19T20:56:37.616Z,102131.88
2022-10-19T20:59:07.928Z,102131.88
2022-10-19T21:01:36.780Z,102125.78
2022-10-19T21:04:05.830Z,102120.66
2022-10-19T21:06:34.715Z,102126.63
2022-10-19T21:09:01.115Z,102119.81
2022-10-19T21:11:33.912Z,102114.59
2022-10-19T21:14:04.173Z,102119.81
2022-10-19T21:16:33.872Z,102122.34
2022-10-19T21:19:01.194Z,102118.97
2022-10-19T21:21:30.416Z,102127.66
2022-10-19T21:23:59.888Z,102118.97
2022-10-19T21:26:28.221Z,102124.22
2022-10-19T21:28:55.364Z,102121.59
2022-10-19T21:31:23.719Z,102124.22
2022-10-19T21:33:50.953Z,102117.28
2022-10-19T21:36:18.221Z,102118.22
2022-10-19T21:38:44.724Z,102118.22
2022-10-19T21:41:16.567Z,102115.59
2022-10-19T21:43:43.328Z,102104.31
2022-10-19T21:46:15.399Z,102103.56
2022-10-19T21:48:42.708Z,102100.09
2022-10-19T21:51:30.377Z,102113.09
2022-10-19T21:53:56.738Z,102098.31
2022-10-19T21:56:23.482Z,102098.41
2022-10-19T21:58:52.580Z,102104.59
2022-10-19T22:01:21.622Z,102100.09
2022-10-19T22:03:54.224Z,102092.38
2022-10-19T22:06:20.587Z,102092.38
2022-10-19T22:08:47.481Z,102082.00
2022-10-19T22:11:14.799Z,102075.84
2022-10-19T22:13:41.291Z,102068.94
2022-10-19T22:16:12.238Z,102074.16
2022-10-19T22:18:38.664Z,102072.47
2022-10-19T22:21:07.449Z,102073.41
2022-10-19T22:23:33.793Z,102077.69
2022-10-19T22:26:00.459Z,102069.97
2022-10-19T22:28:27.411Z,102066.53
2022-10-19T22:30:55.671Z,102059.50
2022-10-19T22:33:23.299Z,102050.84
2022-10-19T22:35:54.539Z,102051.75
2022-10-19T22:38:20.869Z,102038.69
2022-10-19T22:41:43.612Z,102034.41
2022-10-19T22:44:09.959Z,102035.34
2022-10-19T22:46:36.324Z,102030.13
2022-10-19T22:49:02.805Z,102030.13
2022-10-19T22:51:29.375Z,102019.69
2022-10-19T22:53:55.849Z,102016.19
2022-10-19T22:56:22.203Z,102010.16
2022-10-19T22:58:48.574Z,101996.25
2022-10-19T23:01:16.334Z,102002.31
2022-10-19T23:03:43.103Z,101991.94
2022-10-19T23:06:12.135Z,101996.34
2022-10-19T23:08:38.728Z,102001.56
2022-10-19T23:11:05.577Z,101990.25
2022-10-19T23:13:32.075Z,101990.25
2022-10-19T23:15:58.474Z,101988.56
2022-10-19T23:18:24.924Z,101994.66
2022-10-19T23:20:58.792Z,101995.59
2022-10-19T23:23:25.530Z,101985.97
2022-10-19T23:26:12.411Z,101992.97
2022-10-19T23:28:40.482Z,101976.56
2022-10-19T23:31:13.245Z,101971.34
2022-10-19T23:33:40.354Z,101967.88
2022-10-19T23:36:14.704Z,101962.63
2022-10-19T23:38:42.335Z,101956.50
2022-10-19T23:41:08.830Z,101953.97
2022-10-19T23:46:01.655Z,101951.47
2022-10-19T23:48:28.474Z,101952.28
2022-10-19T23:51:00.926Z,101945.41
2022-10-19T23:53:28.562Z,101942.78
2022-10-19T23:56:09.903Z,101930.66
2022-10-19T23:58:36.282Z,101932.34
